TAR374 DTTA-DAAG
Flight info
| Callsign | TAR374 |
|---|---|
| Flight time | 1h 1m |
| Altitude | 24000 |
| Route | KEMIR3C KEMIR A411 BJA/N0450F360 DCT 37N004E DCT ZEM |
| Aircraft | A320/M-SDE3FGHIRWY/LB1 |
Departure
| Time | 2026-05-05 16:44 |
|---|---|
| Airport | Tunis Carthage International Airport (DTTA) |
Arrival
| Time | 2026-05-05 17:45 |
|---|---|
| Airport | Houari Boumediene Airport (DAAG) |
| Time | Latitude | Longitude | Altitude | Speed | Heading |
|---|---|---|---|---|---|
| 2026-05-05 16:19 | 36.84367 | 10.21866 | 31 ft | 0 kts | 283° |
| 2026-05-05 16:20 | 36.84367 | 10.21867 | 31 ft | 0 kts | 283° |
| 2026-05-05 16:38 | 36.84363 | 10.21892 | 30 ft | 4 kts | 282° |
| 2026-05-05 16:38 | 36.84358 | 10.21920 | 30 ft | 4 kts | 279° |
| 2026-05-05 16:38 | 36.84360 | 10.21950 | 30 ft | 4 kts | 229° |
| 2026-05-05 16:38 | 36.84381 | 10.21967 | 30 ft | 4 kts | 193° |
| 2026-05-05 16:39 | 36.84395 | 10.21971 | 30 ft | 4 kts | 192° |
| 2026-05-05 16:39 | 36.84369 | 10.21964 | 29 ft | 2 kts | 192° |
| 2026-05-05 16:39 | 36.84367 | 10.21964 | 28 ft | 3 kts | 192° |
| 2026-05-05 16:41 | 36.84359 | 10.21961 | 30 ft | 5 kts | 192° |
| 2026-05-05 16:42 | 36.84290 | 10.21943 | 30 ft | 14 kts | 192° |
| 2026-05-05 16:42 | 36.84164 | 10.21910 | 30 ft | 22 kts | 191° |
| 2026-05-05 16:42 | 36.83998 | 10.21871 | 30 ft | 22 kts | 193° |
| 2026-05-05 16:42 | 36.83895 | 10.21881 | 30 ft | 11 kts | 114° |
| 2026-05-05 16:43 | 36.83885 | 10.21995 | 30 ft | 17 kts | 103° |
| 2026-05-05 16:43 | 36.83867 | 10.22168 | 30 ft | 23 kts | 79° |
| 2026-05-05 16:43 | 36.83953 | 10.22361 | 31 ft | 30 kts | 36° |
| 2026-05-05 16:43 | 36.84224 | 10.22464 | 31 ft | 58 kts | 13° |
| 2026-05-05 16:44 | 36.84845 | 10.22629 | 33 ft | 121 kts | 14° |
| 2026-05-05 16:44 | 36.85842 | 10.22895 | 48 ft | 168 kts | 16° |
| 2026-05-05 16:44 | 36.86948 | 10.23194 | 709 ft | 160 kts | 14° |
| 2026-05-05 16:44 | 36.88046 | 10.23453 | 1296 ft | 161 kts | 14° |
| 2026-05-05 16:45 | 36.89165 | 10.23761 | 1902 ft | 169 kts | 14° |
| 2026-05-05 16:45 | 36.90387 | 10.24106 | 2244 ft | 191 kts | 14° |
| 2026-05-05 16:45 | 36.91765 | 10.24497 | 2555 ft | 215 kts | 13° |
| 2026-05-05 16:45 | 36.93308 | 10.24930 | 2939 ft | 239 kts | 13° |
| 2026-05-05 16:46 | 36.95015 | 10.25269 | 3410 ft | 263 kts | 359° |
| 2026-05-05 16:46 | 36.96844 | 10.24786 | 4055 ft | 274 kts | 334° |
| 2026-05-05 16:46 | 36.98396 | 10.23416 | 4958 ft | 275 kts | 310° |
| 2026-05-05 16:46 | 36.99392 | 10.21399 | 5905 ft | 272 kts | 287° |
| 2026-05-05 16:47 | 36.99668 | 10.19077 | 6825 ft | 271 kts | 265° |
| 2026-05-05 16:47 | 36.99206 | 10.16832 | 7713 ft | 272 kts | 243° |
| 2026-05-05 16:47 | 36.98069 | 10.14932 | 8586 ft | 276 kts | 226° |
| 2026-05-05 16:47 | 36.96708 | 10.13207 | 9490 ft | 279 kts | 226° |
| 2026-05-05 16:48 | 36.95332 | 10.11468 | 10275 ft | 286 kts | 226° |
| 2026-05-05 16:48 | 36.93873 | 10.09621 | 10583 ft | 310 kts | 227° |
| 2026-05-05 16:48 | 36.92303 | 10.07631 | 10918 ft | 329 kts | 227° |
| 2026-05-05 16:48 | 36.90703 | 10.05577 | 11579 ft | 336 kts | 230° |
| 2026-05-05 16:49 | 36.89331 | 10.03188 | 12321 ft | 339 kts | 242° |
| 2026-05-05 16:49 | 36.88410 | 10.00461 | 13092 ft | 341 kts | 254° |
| 2026-05-05 16:49 | 36.87823 | 9.97582 | 13851 ft | 344 kts | 256° |
| 2026-05-05 16:49 | 36.87235 | 9.94666 | 14539 ft | 347 kts | 256° |
| 2026-05-05 16:50 | 36.86639 | 9.91762 | 15219 ft | 349 kts | 256° |
| 2026-05-05 16:50 | 36.86025 | 9.88804 | 15911 ft | 352 kts | 256° |
| 2026-05-05 16:50 | 36.85404 | 9.85819 | 16589 ft | 355 kts | 256° |
| 2026-05-05 16:50 | 36.84784 | 9.82808 | 17263 ft | 358 kts | 258° |
| 2026-05-05 16:51 | 36.84453 | 9.79721 | 17909 ft | 361 kts | 268° |
| 2026-05-05 16:51 | 36.84408 | 9.76613 | 18517 ft | 364 kts | 269° |
| 2026-05-05 16:51 | 36.84359 | 9.73434 | 19037 ft | 367 kts | 269° |
| 2026-05-05 16:51 | 36.84302 | 9.70224 | 19586 ft | 370 kts | 269° |
| 2026-05-05 16:52 | 36.84241 | 9.66997 | 20122 ft | 373 kts | 269° |
| 2026-05-05 16:52 | 36.84177 | 9.63736 | 20661 ft | 376 kts | 269° |
| 2026-05-05 16:52 | 36.84115 | 9.60489 | 21199 ft | 379 kts | 269° |
| 2026-05-05 16:52 | 36.84051 | 9.57167 | 21731 ft | 382 kts | 269° |
| 2026-05-05 16:53 | 36.83986 | 9.53828 | 22253 ft | 385 kts | 269° |
| 2026-05-05 16:53 | 36.83921 | 9.50501 | 22747 ft | 388 kts | 269° |
| 2026-05-05 16:53 | 36.83853 | 9.47097 | 23253 ft | 391 kts | 269° |
| 2026-05-05 16:53 | 36.83784 | 9.43685 | 23720 ft | 394 kts | 269° |
| 2026-05-05 16:54 | 36.83716 | 9.40278 | 24157 ft | 396 kts | 269° |
| 2026-05-05 16:54 | 36.83647 | 9.36828 | 24597 ft | 398 kts | 268° |
| 2026-05-05 16:54 | 36.83574 | 9.33355 | 25037 ft | 400 kts | 268° |
| 2026-05-05 16:54 | 36.83496 | 9.29870 | 25474 ft | 401 kts | 268° |
| 2026-05-05 16:55 | 36.83416 | 9.26371 | 25905 ft | 403 kts | 268° |
| 2026-05-05 16:55 | 36.83335 | 9.22856 | 26339 ft | 405 kts | 268° |
| 2026-05-05 16:55 | 36.83252 | 9.19333 | 26746 ft | 407 kts | 268° |
| 2026-05-05 16:55 | 36.83168 | 9.15792 | 27157 ft | 409 kts | 268° |
| 2026-05-05 16:56 | 36.83084 | 9.12274 | 27572 ft | 410 kts | 268° |
| 2026-05-05 16:56 | 36.82997 | 9.08702 | 27987 ft | 412 kts | 268° |
| 2026-05-05 16:56 | 36.82911 | 9.05115 | 28382 ft | 414 kts | 268° |
| 2026-05-05 16:56 | 36.82822 | 9.01504 | 28755 ft | 416 kts | 268° |
| 2026-05-05 16:57 | 36.82734 | 8.97879 | 29126 ft | 418 kts | 268° |
| 2026-05-05 16:57 | 36.82705 | 8.94243 | 29487 ft | 420 kts | 270° |
| 2026-05-05 16:57 | 36.82760 | 8.90640 | 29827 ft | 422 kts | 271° |
| 2026-05-05 16:57 | 36.82867 | 8.86955 | 30143 ft | 423 kts | 272° |
| 2026-05-05 16:58 | 36.82992 | 8.83268 | 30448 ft | 425 kts | 272° |
| 2026-05-05 16:58 | 36.83114 | 8.79610 | 30797 ft | 424 kts | 272° |
| 2026-05-05 16:58 | 36.83222 | 8.75931 | 31226 ft | 422 kts | 271° |
| 2026-05-05 16:58 | 36.83313 | 8.72263 | 31667 ft | 420 kts | 271° |
| 2026-05-05 16:59 | 36.83391 | 8.68613 | 32121 ft | 418 kts | 271° |
| 2026-05-05 16:59 | 36.83463 | 8.65026 | 32547 ft | 416 kts | 271° |
| 2026-05-05 16:59 | 36.83506 | 8.61416 | 32951 ft | 415 kts | 270° |
| 2026-05-05 16:59 | 36.83512 | 8.57808 | 33377 ft | 413 kts | 269° |
| 2026-05-05 17:00 | 36.83497 | 8.54213 | 33812 ft | 411 kts | 269° |
| 2026-05-05 17:00 | 36.83476 | 8.50681 | 34209 ft | 409 kts | 269° |
| 2026-05-05 17:00 | 36.83455 | 8.47130 | 34590 ft | 407 kts | 269° |
| 2026-05-05 17:00 | 36.83440 | 8.43584 | 34963 ft | 405 kts | 269° |
| 2026-05-05 17:01 | 36.83432 | 8.40114 | 35342 ft | 403 kts | 269° |
| 2026-05-05 17:01 | 36.83433 | 8.36620 | 35712 ft | 401 kts | 270° |
| 2026-05-05 17:01 | 36.83434 | 8.33141 | 35933 ft | 400 kts | 269° |
| 2026-05-05 17:01 | 36.83433 | 8.29655 | 35972 ft | 399 kts | 269° |
| 2026-05-05 17:02 | 36.83417 | 8.22779 | 35988 ft | 397 kts | 269° |
| 2026-05-05 17:02 | 36.83395 | 8.15865 | 35980 ft | 397 kts | 269° |
| 2026-05-05 17:03 | 36.83372 | 8.08951 | 35987 ft | 398 kts | 269° |
| 2026-05-05 17:03 | 36.83346 | 8.02082 | 35972 ft | 398 kts | 269° |
| 2026-05-05 17:04 | 36.83319 | 7.95158 | 35976 ft | 398 kts | 269° |
| 2026-05-05 17:04 | 36.83287 | 7.88275 | 35983 ft | 398 kts | 269° |
| 2026-05-05 17:05 | 36.83244 | 7.81360 | 35990 ft | 398 kts | 269° |
| 2026-05-05 17:05 | 36.83185 | 7.74443 | 35995 ft | 398 kts | 269° |
| 2026-05-05 17:06 | 36.83110 | 7.67522 | 35981 ft | 397 kts | 269° |
| 2026-05-05 17:06 | 36.83027 | 7.60659 | 35993 ft | 397 kts | 268° |
| 2026-05-05 17:07 | 36.82941 | 7.53745 | 35989 ft | 397 kts | 268° |
| 2026-05-05 17:07 | 36.82852 | 7.46847 | 35994 ft | 397 kts | 268° |
| 2026-05-05 17:08 | 36.82766 | 7.40001 | 35992 ft | 396 kts | 268° |
| 2026-05-05 17:08 | 36.82671 | 7.33103 | 35998 ft | 396 kts | 268° |
| 2026-05-05 17:09 | 36.82568 | 7.26253 | 35995 ft | 396 kts | 268° |
| 2026-05-05 17:09 | 36.82468 | 7.19383 | 36000 ft | 396 kts | 268° |
| 2026-05-05 17:10 | 36.82366 | 7.12511 | 35995 ft | 395 kts | 268° |
| 2026-05-05 17:10 | 36.82260 | 7.05629 | 35991 ft | 395 kts | 268° |
| 2026-05-05 17:11 | 36.82148 | 6.98772 | 35992 ft | 396 kts | 268° |
| 2026-05-05 17:11 | 36.82030 | 6.91938 | 35997 ft | 395 kts | 268° |
| 2026-05-05 17:12 | 36.81909 | 6.85065 | 35993 ft | 395 kts | 268° |
| 2026-05-05 17:12 | 36.81804 | 6.79349 | 35995 ft | 395 kts | 268° |
| 2026-05-05 17:13 | 36.81655 | 6.71369 | 35994 ft | 395 kts | 268° |
| 2026-05-05 17:13 | 36.81546 | 6.65652 | 35997 ft | 395 kts | 268° |
| 2026-05-05 17:14 | 36.81410 | 6.58796 | 35991 ft | 395 kts | 267° |
| 2026-05-05 17:14 | 36.81265 | 6.51945 | 35994 ft | 395 kts | 267° |
| 2026-05-05 17:15 | 36.81124 | 6.45086 | 35992 ft | 394 kts | 267° |
| 2026-05-05 17:15 | 36.80979 | 6.38234 | 35999 ft | 395 kts | 267° |
| 2026-05-05 17:16 | 36.80827 | 6.31416 | 35996 ft | 394 kts | 267° |
| 2026-05-05 17:16 | 36.80670 | 6.24555 | 35996 ft | 394 kts | 267° |
| 2026-05-05 17:17 | 36.80508 | 6.17712 | 35994 ft | 394 kts | 267° |
| 2026-05-05 17:17 | 36.80345 | 6.10873 | 36001 ft | 394 kts | 267° |
| 2026-05-05 17:18 | 36.80173 | 6.04075 | 36000 ft | 394 kts | 267° |
| 2026-05-05 17:18 | 36.80005 | 5.97266 | 36003 ft | 393 kts | 267° |
| 2026-05-05 17:19 | 36.79828 | 5.90422 | 36002 ft | 393 kts | 267° |
| 2026-05-05 17:19 | 36.79369 | 5.83667 | 36002 ft | 392 kts | 262° |
| 2026-05-05 17:20 | 36.78692 | 5.76927 | 36003 ft | 392 kts | 262° |
| 2026-05-05 17:20 | 36.78012 | 5.70139 | 36003 ft | 392 kts | 262° |
| 2026-05-05 17:21 | 36.77335 | 5.63438 | 36001 ft | 391 kts | 262° |
| 2026-05-05 17:22 | 36.76314 | 5.53346 | 36000 ft | 391 kts | 262° |
| 2026-05-05 17:22 | 36.75620 | 5.46608 | 36001 ft | 391 kts | 262° |
| 2026-05-05 17:23 | 36.74923 | 5.39914 | 36000 ft | 391 kts | 262° |
| 2026-05-05 17:23 | 36.74220 | 5.33177 | 35998 ft | 391 kts | 262° |
| 2026-05-05 17:24 | 36.73526 | 5.26480 | 35998 ft | 391 kts | 262° |
| 2026-05-05 17:24 | 36.72824 | 5.19752 | 35996 ft | 391 kts | 262° |
| 2026-05-05 17:25 | 36.72109 | 5.12994 | 35079 ft | 400 kts | 262° |
| 2026-05-05 17:25 | 36.71912 | 5.10691 | 34393 ft | 407 kts | 266° |
| 2026-05-05 17:25 | 36.72161 | 5.05922 | 33021 ft | 419 kts | 278° |
| 2026-05-05 17:25 | 36.72945 | 5.02404 | 31934 ft | 431 kts | 285° |
| 2026-05-05 17:26 | 36.73917 | 4.98819 | 30985 ft | 435 kts | 285° |
| 2026-05-05 17:26 | 36.74884 | 4.95252 | 30424 ft | 431 kts | 285° |
| 2026-05-05 17:26 | 36.75832 | 4.91742 | 29714 ft | 429 kts | 285° |
| 2026-05-05 17:26 | 36.76782 | 4.88210 | 29038 ft | 425 kts | 285° |
| 2026-05-05 17:27 | 36.77718 | 4.84728 | 28376 ft | 421 kts | 285° |
| 2026-05-05 17:27 | 36.78632 | 4.81316 | 27742 ft | 417 kts | 285° |
| 2026-05-05 17:27 | 36.79551 | 4.77877 | 27104 ft | 414 kts | 285° |
| 2026-05-05 17:27 | 36.80456 | 4.74476 | 26490 ft | 410 kts | 284° |
| 2026-05-05 17:28 | 36.81348 | 4.71104 | 25866 ft | 407 kts | 284° |
| 2026-05-05 17:28 | 36.82224 | 4.67787 | 25260 ft | 403 kts | 284° |
| 2026-05-05 17:28 | 36.83103 | 4.64470 | 24678 ft | 399 kts | 285° |
| 2026-05-05 17:28 | 36.83976 | 4.61186 | 24122 ft | 396 kts | 285° |
| 2026-05-05 17:29 | 36.84832 | 4.57961 | 23569 ft | 393 kts | 285° |
| 2026-05-05 17:29 | 36.85687 | 4.54730 | 22978 ft | 389 kts | 285° |
| 2026-05-05 17:29 | 36.86532 | 4.51535 | 22468 ft | 384 kts | 284° |
| 2026-05-05 17:29 | 36.87365 | 4.48383 | 21975 ft | 379 kts | 284° |
| 2026-05-05 17:30 | 36.88189 | 4.45260 | 21477 ft | 374 kts | 284° |
| 2026-05-05 17:30 | 36.88992 | 4.42210 | 20990 ft | 371 kts | 284° |
| 2026-05-05 17:30 | 36.89796 | 4.39151 | 20492 ft | 367 kts | 284° |
| 2026-05-05 17:30 | 36.90589 | 4.36130 | 19994 ft | 363 kts | 284° |
| 2026-05-05 17:31 | 36.91363 | 4.33171 | 19498 ft | 360 kts | 284° |
| 2026-05-05 17:31 | 36.92140 | 4.30203 | 19001 ft | 358 kts | 284° |
| 2026-05-05 17:31 | 36.92914 | 4.27242 | 18497 ft | 357 kts | 284° |
| 2026-05-05 17:31 | 36.93683 | 4.24294 | 17966 ft | 355 kts | 284° |
| 2026-05-05 17:32 | 36.94447 | 4.21361 | 17436 ft | 352 kts | 284° |
| 2026-05-05 17:32 | 36.95206 | 4.18449 | 16944 ft | 350 kts | 284° |
| 2026-05-05 17:32 | 36.95951 | 4.15592 | 16456 ft | 347 kts | 284° |
| 2026-05-05 17:32 | 36.96698 | 4.12730 | 15963 ft | 345 kts | 284° |
| 2026-05-05 17:33 | 36.97443 | 4.09877 | 15489 ft | 343 kts | 284° |
| 2026-05-05 17:33 | 36.98176 | 4.07067 | 15007 ft | 341 kts | 285° |
| 2026-05-05 17:33 | 36.98895 | 4.04240 | 14533 ft | 338 kts | 282° |
| 2026-05-05 17:33 | 36.99205 | 4.01347 | 14051 ft | 333 kts | 268° |
| 2026-05-05 17:34 | 36.98902 | 3.98485 | 13548 ft | 330 kts | 254° |
| 2026-05-05 17:34 | 36.98029 | 3.95863 | 13048 ft | 328 kts | 241° |
| 2026-05-05 17:34 | 36.96859 | 3.93422 | 12564 ft | 325 kts | 240° |
| 2026-05-05 17:34 | 36.95700 | 3.90993 | 12079 ft | 322 kts | 240° |
| 2026-05-05 17:35 | 36.94573 | 3.88619 | 11600 ft | 319 kts | 240° |
| 2026-05-05 17:35 | 36.93441 | 3.86237 | 11117 ft | 317 kts | 240° |
| 2026-05-05 17:35 | 36.92314 | 3.83869 | 10633 ft | 314 kts | 239° |
| 2026-05-05 17:35 | 36.91152 | 3.81425 | 10345 ft | 305 kts | 239° |
| 2026-05-05 17:36 | 36.90154 | 3.79329 | 10262 ft | 293 kts | 239° |
| 2026-05-05 17:36 | 36.89125 | 3.77177 | 10140 ft | 281 kts | 239° |
| 2026-05-05 17:36 | 36.88141 | 3.75119 | 10029 ft | 270 kts | 239° |
| 2026-05-05 17:36 | 36.87191 | 3.73132 | 9813 ft | 263 kts | 239° |
| 2026-05-05 17:37 | 36.86259 | 3.71180 | 9383 ft | 264 kts | 239° |
| 2026-05-05 17:37 | 36.85624 | 3.69852 | 9141 ft | 262 kts | 238° |
| 2026-05-05 17:37 | 36.84376 | 3.67251 | 8549 ft | 262 kts | 238° |
| 2026-05-05 17:37 | 36.83450 | 3.65320 | 8119 ft | 262 kts | 238° |
| 2026-05-05 17:38 | 36.82512 | 3.63366 | 7692 ft | 262 kts | 237° |
| 2026-05-05 17:38 | 36.81574 | 3.61414 | 7267 ft | 262 kts | 237° |
| 2026-05-05 17:38 | 36.80637 | 3.59461 | 6836 ft | 262 kts | 237° |
| 2026-05-05 17:38 | 36.79848 | 3.57819 | 6489 ft | 262 kts | 236° |
| 2026-05-05 17:39 | 36.78751 | 3.56017 | 6044 ft | 260 kts | 226° |
| 2026-05-05 17:39 | 36.77583 | 3.54360 | 5598 ft | 261 kts | 226° |
| 2026-05-05 17:39 | 36.76362 | 3.52632 | 5154 ft | 262 kts | 226° |
| 2026-05-05 17:39 | 36.75151 | 3.50918 | 4589 ft | 267 kts | 227° |
| 2026-05-05 17:40 | 36.73892 | 3.49137 | 3896 ft | 277 kts | 227° |
| 2026-05-05 17:40 | 36.72627 | 3.47344 | 3593 ft | 271 kts | 228° |
| 2026-05-05 17:40 | 36.71412 | 3.45622 | 3459 ft | 254 kts | 228° |
| 2026-05-05 17:40 | 36.70305 | 3.44053 | 3353 ft | 232 kts | 228° |
| 2026-05-05 17:41 | 36.69294 | 3.42586 | 3247 ft | 214 kts | 234° |
| 2026-05-05 17:41 | 36.68709 | 3.40951 | 3127 ft | 204 kts | 258° |
| 2026-05-05 17:41 | 36.68655 | 3.39242 | 2936 ft | 191 kts | 271° |
| 2026-05-05 17:41 | 36.68699 | 3.37632 | 2679 ft | 180 kts | 272° |
| 2026-05-05 17:42 | 36.68739 | 3.36125 | 2478 ft | 166 kts | 272° |
| 2026-05-05 17:42 | 36.68774 | 3.34757 | 2244 ft | 152 kts | 272° |
| 2026-05-05 17:42 | 36.68806 | 3.33471 | 2045 ft | 146 kts | 273° |
| 2026-05-05 17:42 | 36.68837 | 3.32222 | 1856 ft | 143 kts | 273° |
| 2026-05-05 17:43 | 36.68868 | 3.30992 | 1670 ft | 142 kts | 273° |
| 2026-05-05 17:43 | 36.68899 | 3.29767 | 1477 ft | 142 kts | 273° |
| 2026-05-05 17:43 | 36.68929 | 3.28540 | 1285 ft | 141 kts | 273° |
| 2026-05-05 17:43 | 36.68959 | 3.27330 | 1096 ft | 142 kts | 272° |
| 2026-05-05 17:44 | 36.68989 | 3.26107 | 905 ft | 141 kts | 273° |
| 2026-05-05 17:44 | 36.69018 | 3.24883 | 721 ft | 141 kts | 272° |
| 2026-05-05 17:44 | 36.69047 | 3.23661 | 539 ft | 141 kts | 273° |
| 2026-05-05 17:44 | 36.69079 | 3.22447 | 378 ft | 140 kts | 273° |
| 2026-05-05 17:45 | 36.69107 | 3.21233 | 173 ft | 140 kts | 272° |
| 2026-05-05 17:45 | 36.69138 | 3.20048 | 86 ft | 128 kts | 272° |
| 2026-05-05 17:45 | 36.69157 | 3.19124 | 87 ft | 82 kts | 272° |
| 2026-05-05 17:45 | 36.69171 | 3.18597 | 88 ft | 38 kts | 271° |
| 2026-05-05 17:46 | 36.69234 | 3.18426 | 86 ft | 20 kts | 351° |
| 2026-05-05 17:46 | 36.69326 | 3.18442 | 82 ft | 11 kts | 35° |
| 2026-05-05 17:46 | 36.69340 | 3.18547 | 81 ft | 14 kts | 94° |
| 2026-05-05 17:46 | 36.69335 | 3.18686 | 80 ft | 18 kts | 92° |
| 2026-05-05 17:47 | 36.69329 | 3.18851 | 82 ft | 15 kts | 94° |
| 2026-05-05 17:47 | 36.69328 | 3.18979 | 80 ft | 13 kts | 90° |
| 2026-05-05 17:47 | 36.69326 | 3.19080 | 78 ft | 11 kts | 92° |
| 2026-05-05 17:47 | 36.69324 | 3.19159 | 81 ft | 7 kts | 92° |
| 2026-05-05 17:48 | 36.69322 | 3.19235 | 76 ft | 10 kts | 91° |
| 2026-05-05 17:48 | 36.69320 | 3.19331 | 78 ft | 11 kts | 91° |
| 2026-05-05 17:48 | 36.69318 | 3.19441 | 77 ft | 15 kts | 91° |
| 2026-05-05 17:48 | 36.69314 | 3.19584 | 81 ft | 18 kts | 93° |
| 2026-05-05 17:49 | 36.69311 | 3.19731 | 81 ft | 16 kts | 91° |
| 2026-05-05 17:49 | 36.69308 | 3.19839 | 80 ft | 7 kts | 89° |
| 2026-05-05 17:49 | 36.69340 | 3.19898 | 72 ft | 8 kts | 1° |
| 2026-05-05 17:49 | 36.69408 | 3.19897 | 79 ft | 11 kts | 20° |
| 2026-05-05 17:50 | 36.69446 | 3.19938 | 74 ft | 8 kts | 51° |
| 2026-05-05 17:50 | 36.69451 | 3.20005 | 79 ft | 9 kts | 84° |
| 2026-05-05 17:50 | 36.69453 | 3.20065 | 79 ft | 12 kts | 91° |
| 2026-05-05 17:50 | 36.69451 | 3.20182 | 78 ft | 15 kts | 91° |
| 2026-05-05 17:51 | 36.69448 | 3.20334 | 80 ft | 11 kts | 76° |
| 2026-05-05 17:51 | 36.69508 | 3.20367 | 80 ft | 10 kts | 2° |
| 2026-05-05 17:51 | 36.69570 | 3.20368 | 80 ft | 8 kts | 1° |
| 2026-05-05 17:51 | 36.69608 | 3.20369 | 80 ft | 7 kts | 1° |
| 2026-05-05 17:52 | 36.69656 | 3.20370 | 79 ft | 6 kts | 1° |
| 2026-05-05 17:52 | 36.69695 | 3.20371 | 79 ft | 5 kts | 359° |
| 2026-05-05 17:52 | 36.69713 | 3.20347 | 77 ft | 3 kts | 290° |
| 2026-05-05 17:52 | 36.69714 | 3.20323 | 77 ft | 2 kts | 271° |
| 2026-05-05 17:53 | 36.69714 | 3.20306 | 78 ft | 2 kts | 271° |
| 2026-05-05 17:53 | 36.69714 | 3.20295 | 78 ft | 1 kts | 271° |
| 2026-05-05 17:53 | 36.69714 | 3.20290 | 79 ft | 0 kts | 272° |
| 2026-05-05 17:53 | 36.69715 | 3.20285 | 79 ft | 1 kts | 272° |
| 2026-05-05 17:54 | 36.69715 | 3.20280 | 79 ft | 0 kts | 272° |
| 2026-05-05 17:54 | 36.69715 | 3.20279 | 79 ft | 0 kts | 272° |